createdAt,value
2022-10-05T00:01:45.999Z,101168.63
2022-10-05T00:04:15.532Z,101180.00
2022-10-05T00:06:47.689Z,101179.97
2022-10-05T00:09:23.085Z,101177.38
2022-10-05T00:11:51.123Z,101185.22
2022-10-05T00:14:31.594Z,101180.09
2022-10-05T00:16:58.350Z,101177.47
2022-10-05T00:19:33.051Z,101179.22
2022-10-05T00:22:09.552Z,101168.75
2022-10-05T00:24:36.176Z,101163.50
2022-10-05T00:27:18.131Z,101165.13
2022-10-05T00:29:46.185Z,101155.53
2022-10-05T00:32:13.032Z,101141.56
2022-10-05T00:34:39.734Z,101158.19
2022-10-05T00:37:06.627Z,101146.94
2022-10-05T00:39:36.049Z,101142.53
2022-10-05T00:42:21.300Z,101148.59
2022-10-05T00:45:14.842Z,101135.50
2022-10-05T00:47:50.775Z,101142.50
2022-10-05T00:50:47.281Z,101148.59
2022-10-05T00:53:44.906Z,101156.44
2022-10-05T00:56:37.065Z,101153.81
2022-10-05T00:59:22.728Z,101149.53
2022-10-05T01:02:20.217Z,101149.53
2022-10-05T01:05:09.414Z,101143.44
2022-10-05T01:07:52.065Z,101147.00
2022-10-05T01:10:27.772Z,101143.56
2022-10-05T01:12:54.373Z,101144.34
2022-10-05T01:15:54.322Z,101134.84
2022-10-05T01:18:45.331Z,101131.38
2022-10-05T01:21:20.468Z,101124.41
2022-10-05T01:24:20.480Z,101120.03
2022-10-05T01:27:09.512Z,101119.22
2022-10-05T01:30:06.962Z,101115.72
2022-10-05T01:32:48.414Z,101114.94
2022-10-05T01:35:29.514Z,101117.63
2022-10-05T01:38:01.311Z,101117.59
2022-10-05T01:40:36.567Z,101111.38
2022-10-05T01:43:09.207Z,101112.25
2022-10-05T01:45:38.782Z,101105.28
2022-10-05T01:48:17.359Z,101096.56
2022-10-05T01:51:02.159Z,101100.13
2022-10-05T01:53:37.950Z,101100.06
2022-10-05T01:56:30.304Z,101097.44
2022-10-05T01:59:29.751Z,101098.31
2022-10-05T02:02:05.094Z,101094.91
2022-10-05T02:05:01.517Z,101084.41
2022-10-05T02:07:46.779Z,101087.88
2022-10-05T02:10:37.378Z,101094.84
2022-10-05T02:13:12.818Z,101091.28
2022-10-05T02:15:46.303Z,101084.31
2022-10-05T02:18:28.898Z,101073.84
2022-10-05T02:20:59.099Z,101084.28
2022-10-05T02:23:32.912Z,101080.91
2022-10-05T02:26:01.514Z,101090.47
2022-10-05T02:28:55.198Z,101084.41
2022-10-05T02:31:29.908Z,101075.63
2022-10-05T02:34:29.134Z,101083.44
2022-10-05T02:37:36.107Z,101086.88
2022-10-05T02:40:24.968Z,101083.44
2022-10-05T02:43:00.255Z,101100.84
2022-10-05T02:45:34.200Z,101092.19
2022-10-05T02:48:31.659Z,101089.59
2022-10-05T02:51:10.513Z,101082.63
2022-10-05T02:54:00.979Z,101077.38
2022-10-05T02:57:04.603Z,101078.22
2022-10-05T02:59:46.229Z,101067.00
2022-10-05T03:02:23.818Z,101065.28
2022-10-05T03:05:14.373Z,101057.47
2022-10-05T03:08:03.073Z,101056.56
2022-10-05T03:10:48.957Z,101047.88
2022-10-05T03:13:28.942Z,101046.13
2022-10-05T03:16:22.782Z,101040.81
2022-10-05T03:18:55.555Z,101028.59
2022-10-05T03:21:26.922Z,101025.13
2022-10-05T03:24:00.326Z,101025.13
2022-10-05T03:26:33.015Z,101024.28
2022-10-05T03:29:13.127Z,101018.16
2022-10-05T03:31:46.423Z,101016.44
2022-10-05T03:34:24.502Z,101016.31
2022-10-05T03:37:03.571Z,101017.28
2022-10-05T03:39:52.056Z,101019.88
2022-10-05T03:42:29.553Z,101012.09
2022-10-05T03:45:16.389Z,101005.97
2022-10-05T03:47:52.139Z,101011.91
2022-10-05T03:50:51.144Z,100996.31
2022-10-05T03:53:30.046Z,100990.28
2022-10-05T03:56:18.262Z,100994.69
2022-10-05T03:59:08.208Z,100972.06
2022-10-05T04:01:58.857Z,100986.91
2022-10-05T04:04:33.115Z,100973.91
2022-10-05T04:07:01.504Z,100983.47
2022-10-05T04:09:29.153Z,100977.31
2022-10-05T04:12:27.353Z,100973.94
2022-10-05T04:15:04.037Z,100967.66
2022-10-05T04:17:38.137Z,100960.72
2022-10-05T04:20:22.544Z,100965.19
2022-10-05T04:22:56.261Z,100964.22
2022-10-05T04:25:29.197Z,100966.09
2022-10-05T04:28:21.511Z,100953.75
2022-10-05T04:30:53.072Z,100966.97
2022-10-05T04:33:21.282Z,100960.84
2022-10-05T04:36:03.203Z,100965.19
2022-10-05T04:38:56.471Z,100958.03
2022-10-05T04:41:40.024Z,100969.50
2022-10-05T04:44:09.727Z,100968.69
2022-10-05T04:46:55.150Z,100967.66
2022-10-05T04:49:42.130Z,100963.31
2022-10-05T04:52:48.933Z,100973.66
2022-10-05T04:55:28.067Z,100976.22
2022-10-05T04:58:05.337Z,100971.13
2022-10-05T05:00:40.233Z,100978.94
2022-10-05T05:03:10.216Z,100983.31
2022-10-05T05:05:53.026Z,100987.75
2022-10-05T05:08:37.083Z,100989.59
2022-10-05T05:11:17.427Z,100988.59
2022-10-05T05:14:19.701Z,100989.53
2022-10-05T05:17:02.602Z,100982.53
2022-10-05T05:20:07.345Z,100980.88
2022-10-05T05:22:52.234Z,100987.72
2022-10-05T05:25:39.201Z,100986.00
2022-10-05T05:28:27.945Z,100983.50
2022-10-05T05:31:15.713Z,100988.81
2022-10-05T05:34:02.897Z,100990.50
2022-10-05T05:36:48.608Z,100991.28
2022-10-05T05:39:18.482Z,100994.81
2022-10-05T05:41:58.019Z,100992.84
2022-10-05T05:44:24.977Z,100991.88
2022-10-05T05:47:14.201Z,100995.53
2022-10-05T05:49:54.871Z,100992.22
2022-10-05T05:52:30.412Z,100989.63
2022-10-05T05:55:04.349Z,100990.53
2022-10-05T05:57:39.023Z,100988.81
2022-10-05T06:00:15.283Z,100984.47
2022-10-05T06:03:00.845Z,100981.06
2022-10-05T06:05:46.086Z,100978.50
2022-10-05T06:08:29.030Z,100982.94
2022-10-05T06:11:18.976Z,100979.34
2022-10-05T06:13:46.953Z,100995.25
2022-10-05T06:16:30.031Z,100985.72
2022-10-05T06:19:08.368Z,100987.47
2022-10-05T06:21:42.370Z,100975.22
2022-10-05T06:24:18.171Z,100983.19
2022-10-05T06:27:06.008Z,100991.91
2022-10-05T06:30:09.883Z,100985.88
2022-10-05T06:32:51.693Z,100992.00
2022-10-05T06:35:54.459Z,100998.09
2022-10-05T06:39:04.474Z,100986.81
2022-10-05T06:41:34.054Z,100990.28
2022-10-05T06:44:09.174Z,100987.78
2022-10-05T06:46:49.598Z,100986.03
2022-10-05T06:50:16.228Z,100993.09
2022-10-05T06:53:43.088Z,100995.75
2022-10-05T06:56:38.192Z,100995.72
2022-10-05T06:59:27.816Z,100986.25
2022-10-05T07:02:00.635Z,100988.00
2022-10-05T07:04:59.539Z,100980.28
2022-10-05T07:07:33.040Z,100987.25
2022-10-05T07:10:08.708Z,100989.84
2022-10-05T07:12:58.810Z,100984.63
2022-10-05T07:15:44.835Z,100990.75
2022-10-05T07:18:58.789Z,100982.06
2022-10-05T07:21:58.662Z,100982.06
2022-10-05T07:24:42.734Z,100981.22
2022-10-05T07:27:25.713Z,100982.91
2022-10-05T07:30:12.080Z,100979.50
2022-10-05T07:33:19.007Z,100977.81
2022-10-05T07:36:04.718Z,100992.63
2022-10-05T07:38:45.622Z,100986.56
2022-10-05T07:41:25.274Z,100999.69
2022-10-05T07:44:02.321Z,100998.81
2022-10-05T07:46:40.108Z,101006.63
2022-10-05T07:49:44.611Z,101004.03
2022-10-05T07:52:34.679Z,101003.19
2022-10-05T07:55:01.970Z,101014.56
2022-10-05T07:57:53.517Z,101009.25
2022-10-05T08:00:23.808Z,101010.16
2022-10-05T08:02:59.149Z,101012.78
2022-10-05T08:05:36.121Z,101018.88
2022-10-05T08:08:18.182Z,101018.03
2022-10-05T08:10:59.039Z,101015.41
2022-10-05T08:13:37.758Z,101015.44
2022-10-05T08:16:12.842Z,101018.91
2022-10-05T08:19:27.702Z,101009.28
2022-10-05T08:22:09.438Z,101008.50
2022-10-05T08:24:57.601Z,101012.84
2022-10-05T08:27:46.174Z,101011.13
2022-10-05T08:30:16.338Z,101009.34
2022-10-05T08:33:00.417Z,101014.56
2022-10-05T08:35:43.755Z,101011.97
2022-10-05T08:38:19.734Z,101004.13
2022-10-05T08:41:08.224Z,101015.47
2022-10-05T08:44:19.110Z,101016.31
2022-10-05T08:46:51.462Z,101018.09
2022-10-05T08:49:42.930Z,101020.69
2022-10-05T08:52:54.319Z,101028.56
2022-10-05T08:55:37.546Z,101021.56
2022-10-05T08:58:14.193Z,101016.34
2022-10-05T09:00:59.122Z,101018.97
2022-10-05T09:03:36.846Z,101018.09
2022-10-05T09:06:27.884Z,101020.69
2022-10-05T09:09:36.564Z,101017.22
2022-10-05T09:12:18.375Z,101022.44
2022-10-05T09:15:24.258Z,101026.81
2022-10-05T09:18:22.947Z,101021.53
2022-10-05T09:21:05.297Z,101017.19
2022-10-05T09:23:39.188Z,101006.63
2022-10-05T09:26:44.689Z,101005.72
2022-10-05T09:29:23.617Z,101009.19
2022-10-05T09:32:17.542Z,100998.66
2022-10-05T09:35:06.046Z,100978.63
2022-10-05T09:37:38.881Z,100996.97
2022-10-05T09:40:36.097Z,100996.94
2022-10-05T09:43:25.593Z,100988.19
2022-10-05T09:46:11.002Z,101000.38
2022-10-05T09:49:13.127Z,100994.28
2022-10-05T09:52:13.938Z,100981.13
2022-10-05T09:55:06.526Z,100982.78
2022-10-05T09:58:05.574Z,100981.84
2022-10-05T10:00:41.247Z,100974.94
2022-10-05T10:03:42.956Z,100974.84
2022-10-05T10:06:33.171Z,100967.88
2022-10-05T10:09:50.851Z,100964.94
2022-10-05T10:12:23.161Z,100963.22
2022-10-05T10:15:27.497Z,100959.66
2022-10-05T10:18:03.273Z,100960.53
2022-10-05T10:20:48.143Z,100949.28
2022-10-05T10:23:32.542Z,100963.16
2022-10-05T10:26:24.214Z,100957.84
2022-10-05T10:29:09.317Z,100953.31
2022-10-05T10:31:54.295Z,100957.63
2022-10-05T10:34:58.337Z,100957.72
2022-10-05T10:37:53.147Z,100949.84
2022-10-05T10:41:04.264Z,100946.09
2022-10-05T10:43:51.976Z,100947.75
2022-10-05T10:46:53.048Z,100947.03
2022-10-05T10:49:50.011Z,100947.13
2022-10-05T10:52:36.626Z,100941.88
2022-10-05T10:55:27.602Z,100945.94
2022-10-05T10:58:19.729Z,100932.13
2022-10-05T11:01:11.114Z,100946.84
2022-10-05T11:03:49.801Z,100937.22
2022-10-05T11:06:44.026Z,100941.25
2022-10-05T11:09:16.745Z,100941.38
2022-10-05T11:12:04.574Z,100932.56
2022-10-05T11:14:43.631Z,100931.59
2022-10-05T11:17:38.294Z,100934.09
2022-10-05T11:20:23.160Z,100925.50
2022-10-05T11:23:26.453Z,100926.16
2022-10-05T11:26:14.632Z,100918.03
2022-10-05T11:29:11.594Z,100913.81
2022-10-05T11:32:12.362Z,100916.22
2022-10-05T11:34:58.320Z,100910.06
2022-10-05T11:37:46.741Z,100908.38
2022-10-05T11:41:02.223Z,100897.09
2022-10-05T11:43:43.708Z,100894.28
2022-10-05T11:46:16.581Z,100881.66
2022-10-05T11:48:53.325Z,100881.59
2022-10-05T11:51:20.761Z,100883.16
2022-10-05T11:54:09.929Z,100870.47
2022-10-05T11:56:42.070Z,100855.53
2022-10-05T11:59:39.495Z,100870.00
2022-10-05T12:02:28.018Z,100866.44
2022-10-05T12:05:11.245Z,100851.31
2022-10-05T12:07:43.272Z,100851.41
2022-10-05T12:10:29.216Z,100839.88
2022-10-05T12:13:25.428Z,100843.16
2022-10-05T12:15:52.644Z,100832.66
2022-10-05T12:18:32.869Z,100832.91
2022-10-05T12:21:06.997Z,100823.97
2022-10-05T12:23:50.400Z,100827.50
2022-10-05T12:26:31.788Z,100818.81
2022-10-05T12:29:51.037Z,100820.56
2022-10-05T12:32:40.693Z,100817.03
2022-10-05T12:35:47.381Z,100812.72
2022-10-05T12:38:46.465Z,100803.06
2022-10-05T12:41:36.492Z,100804.16
2022-10-05T12:44:32.219Z,100790.63
2022-10-05T12:47:23.852Z,100799.81
2022-10-05T12:50:19.330Z,100787.78
2022-10-05T12:53:14.997Z,100792.50
2022-10-05T12:56:03.611Z,100788.22
2022-10-05T12:58:39.846Z,100789.91
2022-10-05T13:01:09.782Z,100790.59
2022-10-05T13:03:38.203Z,100781.81
2022-10-05T13:06:39.188Z,100781.69
2022-10-05T13:09:06.615Z,100778.38
2022-10-05T13:11:42.996Z,100770.16
2022-10-05T13:14:12.651Z,100766.34
2022-10-05T13:17:03.947Z,100765.03
2022-10-05T13:19:40.378Z,100756.59
2022-10-05T13:23:10.629Z,100747.97
2022-10-05T13:26:01.095Z,100752.03
2022-10-05T13:28:53.427Z,100752.31
2022-10-05T13:31:32.538Z,100743.75
2022-10-05T13:34:21.997Z,100757.06
2022-10-05T13:37:20.419Z,100759.56
2022-10-05T13:40:01.104Z,100757.94
2022-10-05T13:42:55.079Z,100757.25
2022-10-05T13:45:43.571Z,100751.38
2022-10-05T13:48:46.105Z,100748.16
2022-10-05T13:51:34.072Z,100739.81
2022-10-05T13:54:17.059Z,100729.28
2022-10-05T13:57:07.732Z,100732.22
2022-10-05T14:00:05.567Z,100725.09
2022-10-05T14:02:50.397Z,100728.13
2022-10-05T14:05:39.055Z,100707.50
2022-10-05T14:08:41.572Z,100714.88
2022-10-05T14:11:53.892Z,100705.13
2022-10-05T14:14:29.573Z,100701.94
2022-10-05T14:17:14.724Z,100647.41
2022-10-05T14:19:47.813Z,100630.03
2022-10-05T14:22:52.323Z,100689.53
2022-10-05T14:26:10.790Z,100690.00
2022-10-05T14:33:30.909Z,100660.81
2022-10-05T14:36:07.915Z,100685.19
2022-10-05T14:39:21.032Z,100665.81
2022-10-05T14:42:34.474Z,100662.03
2022-10-05T14:45:21.219Z,100677.31
2022-10-05T14:51:53.923Z,100629.53
2022-10-05T14:54:49.920Z,100660.31
2022-10-05T14:58:07.570Z,100659.41
2022-10-05T15:01:10.303Z,100638.63
2022-10-05T15:04:16.175Z,100640.94
2022-10-05T15:07:52.089Z,100632.44
2022-10-05T15:10:55.890Z,100635.13
2022-10-05T15:14:15.512Z,100603.91
2022-10-05T15:17:16.887Z,100588.03
2022-10-05T15:20:47.225Z,100631.16
2022-10-05T15:23:48.378Z,100588.63
2022-10-05T15:27:01.661Z,100626.38
2022-10-05T15:30:29.019Z,100629.97
2022-10-05T15:33:34.820Z,100613.59
2022-10-05T15:36:59.360Z,100627.50
2022-10-05T15:39:52.316Z,100637.84
2022-10-05T15:42:52.949Z,100631.00
2022-10-05T15:46:20.590Z,100630.19
2022-10-05T15:49:05.105Z,100632.50
2022-10-05T15:52:35.240Z,100637.22
2022-10-05T15:56:12.134Z,100633.81
2022-10-05T15:59:06.199Z,100636.72
2022-10-05T16:01:58.878Z,100641.75
2022-10-05T16:05:24.055Z,100641.84
2022-10-05T16:08:45.938Z,100650.66
2022-10-05T16:12:03.271Z,100672.25
2022-10-05T16:15:08.534Z,100675.56
2022-10-05T16:18:36.657Z,100682.59
2022-10-05T16:21:42.859Z,100653.00
2022-10-05T16:24:43.795Z,100689.59
2022-10-05T16:31:44.634Z,100628.34
2022-10-05T16:35:30.668Z,100694.59
2022-10-05T16:38:41.430Z,100704.53
2022-10-05T16:44:35.023Z,100711.63
2022-10-05T16:47:27.729Z,100706.94
2022-10-05T16:50:17.247Z,100719.41
2022-10-05T16:52:46.700Z,100729.81
2022-10-05T16:55:20.141Z,100734.34
2022-10-05T16:57:57.626Z,100737.47
2022-10-05T17:00:42.143Z,100726.28
2022-10-05T17:03:27.684Z,100738.41
2022-10-05T17:06:22.350Z,100667.19
2022-10-05T17:09:08.614Z,100728.34
2022-10-05T17:11:59.190Z,100735.53
2022-10-05T17:15:01.203Z,100745.78
2022-10-05T17:18:04.788Z,100737.59
2022-10-05T17:20:42.777Z,100753.88
2022-10-05T17:23:36.255Z,100757.75
2022-10-05T17:26:36.540Z,100762.38
2022-10-05T17:29:22.048Z,100772.94
2022-10-05T17:32:28.917Z,100771.50
2022-10-05T17:35:18.130Z,100781.72
2022-10-05T17:38:26.284Z,100776.47
2022-10-05T17:41:09.575Z,100787.03
2022-10-05T17:44:35.010Z,100790.50
2022-10-05T17:48:01.312Z,100794.69
2022-10-05T17:51:33.991Z,100737.03
2022-10-05T17:54:45.706Z,100809.00
2022-10-05T17:57:35.259Z,100833.03
2022-10-05T18:00:47.098Z,100790.22
2022-10-05T18:03:54.006Z,100825.00
2022-10-05T18:06:37.184Z,100830.22
2022-10-05T18:09:22.689Z,100836.50
2022-10-05T18:12:48.359Z,100844.44
2022-10-05T18:15:58.507Z,100834.75
2022-10-05T18:18:36.983Z,100834.81
2022-10-05T18:21:35.050Z,100840.94
2022-10-05T18:24:33.661Z,100840.41
2022-10-05T18:27:30.561Z,100846.53
2022-10-05T18:30:32.180Z,100859.50
2022-10-05T18:36:40.427Z,100873.66
2022-10-05T18:40:35.007Z,100867.38
2022-10-05T18:43:32.469Z,100883.31
2022-10-05T18:46:47.959Z,100889.56
2022-10-05T18:50:07.683Z,100892.84
2022-10-05T18:53:23.810Z,100905.09
2022-10-05T18:56:29.647Z,100915.81
2022-10-05T18:59:35.699Z,100917.59
2022-10-05T19:06:13.385Z,100861.84
2022-10-05T19:09:27.847Z,100918.50
2022-10-05T19:12:25.701Z,100906.97
2022-10-05T19:15:24.086Z,100914.16
2022-10-05T19:18:30.618Z,100914.09
2022-10-05T19:21:21.890Z,100924.50
2022-10-05T19:24:25.546Z,100928.91
2022-10-05T19:27:31.655Z,100926.19
2022-10-05T19:30:31.608Z,100950.16
2022-10-05T19:33:26.589Z,100943.84
2022-10-05T19:36:43.609Z,100912.63
2022-10-05T19:39:44.214Z,100938.66
2022-10-05T19:42:48.232Z,100944.00
2022-10-05T19:45:57.911Z,100947.44
2022-10-05T19:48:35.225Z,100947.56
2022-10-05T19:51:19.709Z,100949.28
2022-10-05T19:54:00.275Z,100932.03
2022-10-05T19:56:50.761Z,100942.38
2022-10-05T19:59:29.843Z,100937.97
2022-10-05T20:02:04.195Z,100938.25
2022-10-05T20:04:49.456Z,100924.28
2022-10-05T20:07:21.490Z,100944.44
2022-10-05T20:09:52.779Z,100949.78
2022-10-05T20:12:22.655Z,100951.41
2022-10-05T20:15:27.110Z,100960.06
2022-10-05T20:18:12.352Z,100944.47
2022-10-05T20:20:47.116Z,100955.00
2022-10-05T20:23:28.040Z,100950.78
2022-10-05T20:26:13.478Z,100949.94
2022-10-05T20:28:40.208Z,100948.00
2022-10-05T20:31:08.048Z,100952.38
2022-10-05T20:33:34.904Z,100956.97
2022-10-05T20:36:03.486Z,100962.88
2022-10-05T20:38:31.519Z,100949.78
2022-10-05T20:40:58.425Z,100957.59
2022-10-05T20:43:25.056Z,100955.00
2022-10-05T20:45:52.279Z,100951.38
2022-10-05T20:48:19.531Z,100958.53
2022-10-05T20:50:47.269Z,100952.19
2022-10-05T20:53:14.136Z,100958.50
2022-10-05T20:55:40.973Z,100952.28
2022-10-05T20:58:08.965Z,100958.34
2022-10-05T21:00:54.469Z,100951.47
2022-10-05T21:03:21.053Z,100975.06
2022-10-05T21:05:47.662Z,100968.78
2022-10-05T21:08:14.211Z,100971.31
2022-10-05T21:10:40.842Z,100972.91
2022-10-05T21:13:07.480Z,100976.69
2022-10-05T21:15:34.061Z,100984.66
2022-10-05T21:18:00.618Z,100990.03
2022-10-05T21:20:27.311Z,100995.28
2022-10-05T21:22:53.902Z,101002.34
2022-10-05T21:25:20.595Z,101006.63
2022-10-05T21:27:48.623Z,101008.38
2022-10-05T21:30:15.421Z,101009.50
2022-10-05T21:32:44.603Z,101009.28
2022-10-05T21:35:11.346Z,101015.31
2022-10-05T21:37:37.953Z,100995.34
2022-10-05T21:40:05.076Z,101018.03
2022-10-05T21:42:32.015Z,101017.75
2022-10-05T21:44:58.753Z,101007.34
2022-10-05T21:47:25.891Z,101002.69
2022-10-05T21:49:52.768Z,101001.00
2022-10-05T21:52:20.321Z,100996.81
2022-10-05T21:54:47.005Z,101003.09
2022-10-05T21:57:14.657Z,101010.91
2022-10-05T21:59:42.634Z,101003.78
2022-10-05T22:02:09.310Z,101007.16
2022-10-05T22:04:36.191Z,101017.66
2022-10-05T22:07:10.558Z,101014.38
2022-10-05T22:09:37.423Z,101008.06
2022-10-05T22:12:04.295Z,101008.06
2022-10-05T22:14:32.019Z,101027.25
2022-10-05T22:16:58.882Z,101017.00
2022-10-05T22:19:25.805Z,101017.59
2022-10-05T22:21:53.012Z,101008.91
2022-10-05T22:24:19.606Z,101038.59
2022-10-05T22:26:48.318Z,101039.56
2022-10-05T22:29:16.529Z,101050.13
2022-10-05T22:31:45.845Z,101054.44
2022-10-05T22:34:13.335Z,101050.22
2022-10-05T22:36:41.766Z,101053.56
2022-10-05T22:39:08.536Z,101060.59
2022-10-05T22:41:35.237Z,101060.59
2022-10-05T22:44:02.740Z,101075.63
2022-10-05T22:46:29.350Z,101061.56
2022-10-05T22:48:56.000Z,101072.81
2022-10-05T22:51:22.633Z,101079.03
2022-10-05T22:53:49.191Z,101084.41
2022-10-05T22:56:15.937Z,101079.31
2022-10-05T22:58:43.750Z,101090.59
2022-10-05T23:01:13.742Z,101095.13
2022-10-05T23:03:40.820Z,101100.25
2022-10-05T23:06:16.392Z,101094.22
2022-10-05T23:08:44.190Z,101128.44
2022-10-05T23:11:13.817Z,101132.97
2022-10-05T23:13:41.281Z,101159.97
2022-10-05T23:16:13.424Z,101208.09
2022-10-05T23:18:41.073Z,101215.59
2022-10-05T23:21:09.153Z,101223.44
2022-10-05T23:23:37.711Z,101239.13
2022-10-05T23:26:06.186Z,101246.06
2022-10-05T23:28:33.302Z,101253.78
2022-10-05T23:31:05.254Z,101256.34
2022-10-05T23:33:32.747Z,101261.53
2022-10-05T23:35:59.351Z,101273.63
2022-10-05T23:38:26.388Z,101283.28
2022-10-05T23:40:53.634Z,101280.53
2022-10-05T23:43:20.337Z,101293.66
2022-10-05T23:45:47.113Z,101302.44
2022-10-05T23:48:14.109Z,101316.44
2022-10-05T23:50:42.083Z,101324.25
2022-10-05T23:53:08.669Z,101322.31
2022-10-05T23:55:35.257Z,101315.44
2022-10-05T23:58:01.836Z,101332.19
